sensor_id;sensor_type;location;lat;lon;timestamp;P1;durP1;ratioP1;P2;durP2;ratioP2
19812;SDS011;10066;48.108;11.448;2023-12-20T00:02:18;2.47;;;1.70;;
19812;SDS011;10066;48.108;11.448;2023-12-20T00:04:45;2.43;;;1.87;;
19812;SDS011;10066;48.108;11.448;2023-12-20T00:07:12;3.30;;;1.90;;
19812;SDS011;10066;48.108;11.448;2023-12-20T00:09:39;3.13;;;1.60;;
19812;SDS011;10066;48.108;11.448;2023-12-20T00:12:08;4.30;;;1.80;;
19812;SDS011;10066;48.108;11.448;2023-12-20T00:14:37;2.17;;;1.53;;
19812;SDS011;10066;48.108;11.448;2023-12-20T00:17:04;2.77;;;1.60;;
19812;SDS011;10066;48.108;11.448;2023-12-20T00:19:31;3.30;;;1.70;;
19812;SDS011;10066;48.108;11.448;2023-12-20T00:21:58;2.43;;;1.80;;
19812;SDS011;10066;48.108;11.448;2023-12-20T00:24:25;2.53;;;1.60;;
19812;SDS011;10066;48.108;11.448;2023-12-20T00:26:52;3.03;;;2.07;;
19812;SDS011;10066;48.108;11.448;2023-12-20T00:29:21;3.67;;;1.70;;
19812;SDS011;10066;48.108;11.448;2023-12-20T00:31:48;5.63;;;1.90;;
19812;SDS011;10066;48.108;11.448;2023-12-20T00:34:15;2.47;;;1.73;;
19812;SDS011;10066;48.108;11.448;2023-12-20T00:36:42;2.57;;;1.70;;
19812;SDS011;10066;48.108;11.448;2023-12-20T00:39:09;2.23;;;1.40;;
19812;SDS011;10066;48.108;11.448;2023-12-20T00:41:36;1.70;;;1.40;;
19812;SDS011;10066;48.108;11.448;2023-12-20T00:44:03;1.90;;;1.50;;
19812;SDS011;10066;48.108;11.448;2023-12-20T00:46:32;3.23;;;1.50;;
19812;SDS011;10066;48.108;11.448;2023-12-20T00:48:59;4.53;;;1.60;;
19812;SDS011;10066;48.108;11.448;2023-12-20T00:51:26;1.30;;;1.20;;
19812;SDS011;10066;48.108;11.448;2023-12-20T00:53:53;1.60;;;1.20;;
19812;SDS011;10066;48.108;11.448;2023-12-20T00:56:20;2.00;;;1.30;;
19812;SDS011;10066;48.108;11.448;2023-12-20T00:58:47;1.53;;;1.00;;
19812;SDS011;10066;48.108;11.448;2023-12-20T01:01:15;1.37;;;1.07;;
19812;SDS011;10066;48.108;11.448;2023-12-20T01:03:43;2.73;;;1.17;;
19812;SDS011;10066;48.108;11.448;2023-12-20T01:06:11;1.63;;;1.20;;
19812;SDS011;10066;48.108;11.448;2023-12-20T01:08:38;1.50;;;1.10;;
19812;SDS011;10066;48.108;11.448;2023-12-20T01:11:05;1.43;;;1.20;;
19812;SDS011;10066;48.108;11.448;2023-12-20T01:13:32;1.50;;;1.20;;
19812;SDS011;10066;48.108;11.448;2023-12-20T01:15:59;2.57;;;1.10;;
19812;SDS011;10066;48.108;11.448;2023-12-20T01:18:26;1.27;;;0.90;;
19812;SDS011;10066;48.108;11.448;2023-12-20T01:20:55;2.47;;;1.50;;
19812;SDS011;10066;48.108;11.448;2023-12-20T01:23:22;1.20;;;1.07;;
19812;SDS011;10066;48.108;11.448;2023-12-20T01:25:49;2.97;;;1.33;;
19812;SDS011;10066;48.108;11.448;2023-12-20T01:28:16;2.30;;;1.30;;
19812;SDS011;10066;48.108;11.448;2023-12-20T01:30:43;3.20;;;1.23;;
19812;SDS011;10066;48.108;11.448;2023-12-20T01:33:10;1.23;;;1.00;;
19812;SDS011;10066;48.108;11.448;2023-12-20T01:35:37;3.33;;;1.20;;
19812;SDS011;10066;48.108;11.448;2023-12-20T01:38:08;1.53;;;1.10;;
19812;SDS011;10066;48.108;11.448;2023-12-20T01:40:38;1.10;;;1.00;;
19812;SDS011;10066;48.108;11.448;2023-12-20T01:43:06;2.30;;;1.20;;
19812;SDS011;10066;48.108;11.448;2023-12-20T01:45:36;1.77;;;1.10;;
19812;SDS011;10066;48.108;11.448;2023-12-20T01:48:04;1.37;;;1.10;;
19812;SDS011;10066;48.108;11.448;2023-12-20T01:50:33;2.10;;;1.10;;
19812;SDS011;10066;48.108;11.448;2023-12-20T01:53:02;1.27;;;0.90;;
19812;SDS011;10066;48.108;11.448;2023-12-20T01:55:34;2.10;;;1.20;;
19812;SDS011;10066;48.108;11.448;2023-12-20T01:58:02;1.37;;;1.10;;
19812;SDS011;10066;48.108;11.448;2023-12-20T02:00:30;1.33;;;0.97;;
19812;SDS011;10066;48.108;11.448;2023-12-20T02:02:58;3.43;;;1.10;;
19812;SDS011;10066;48.108;11.448;2023-12-20T02:05:28;1.83;;;1.10;;
19812;SDS011;10066;48.108;11.448;2023-12-20T02:07:56;1.37;;;0.87;;
19812;SDS011;10066;48.108;11.448;2023-12-20T02:10:23;1.10;;;0.80;;
19812;SDS011;10066;48.108;11.448;2023-12-20T02:12:52;1.40;;;0.87;;
19812;SDS011;10066;48.108;11.448;2023-12-20T02:15:19;0.97;;;0.83;;
19812;SDS011;10066;48.108;11.448;2023-12-20T02:17:47;3.23;;;0.90;;
19812;SDS011;10066;48.108;11.448;2023-12-20T02:20:14;0.70;;;0.70;;
19812;SDS011;10066;48.108;11.448;2023-12-20T02:22:43;1.10;;;0.80;;
19812;SDS011;10066;48.108;11.448;2023-12-20T02:25:10;1.47;;;0.70;;
19812;SDS011;10066;48.108;11.448;2023-12-20T02:27:37;2.20;;;0.80;;
19812;SDS011;10066;48.108;11.448;2023-12-20T02:30:05;2.80;;;0.70;;
19812;SDS011;10066;48.108;11.448;2023-12-20T02:32:33;2.43;;;0.90;;
19812;SDS011;10066;48.108;11.448;2023-12-20T02:35:00;1.00;;;0.70;;
19812;SDS011;10066;48.108;11.448;2023-12-20T02:37:28;1.90;;;0.80;;
19812;SDS011;10066;48.108;11.448;2023-12-20T02:39:57;0.70;;;0.57;;
19812;SDS011;10066;48.108;11.448;2023-12-20T02:42:26;0.90;;;0.60;;
19812;SDS011;10066;48.108;11.448;2023-12-20T02:44:53;1.10;;;0.70;;
19812;SDS011;10066;48.108;11.448;2023-12-20T02:47:20;1.43;;;0.80;;
19812;SDS011;10066;48.108;11.448;2023-12-20T02:49:47;1.00;;;0.60;;
19812;SDS011;10066;48.108;11.448;2023-12-20T02:52:14;2.20;;;0.60;;
19812;SDS011;10066;48.108;11.448;2023-12-20T02:54:41;0.87;;;0.63;;
19812;SDS011;10066;48.108;11.448;2023-12-20T02:57:10;1.60;;;0.70;;
19812;SDS011;10066;48.108;11.448;2023-12-20T02:59:37;1.60;;;0.70;;
19812;SDS011;10066;48.108;11.448;2023-12-20T03:02:04;0.90;;;0.70;;
19812;SDS011;10066;48.108;11.448;2023-12-20T03:04:31;0.70;;;0.60;;
19812;SDS011;10066;48.108;11.448;2023-12-20T03:06:58;0.93;;;0.63;;
19812;SDS011;10066;48.108;11.448;2023-12-20T03:09:25;0.70;;;0.60;;
19812;SDS011;10066;48.108;11.448;2023-12-20T03:11:52;1.93;;;0.70;;
19812;SDS011;10066;48.108;11.448;2023-12-20T03:14:20;1.43;;;0.70;;
19812;SDS011;10066;48.108;11.448;2023-12-20T03:16:48;0.90;;;0.57;;
19812;SDS011;10066;48.108;11.448;2023-12-20T03:19:16;0.73;;;0.60;;
19812;SDS011;10066;48.108;11.448;2023-12-20T03:21:44;1.80;;;0.70;;
19812;SDS011;10066;48.108;11.448;2023-12-20T03:24:11;1.03;;;0.70;;
19812;SDS011;10066;48.108;11.448;2023-12-20T03:26:38;0.70;;;0.60;;
19812;SDS011;10066;48.108;11.448;2023-12-20T03:29:05;0.70;;;0.60;;
19812;SDS011;10066;48.108;11.448;2023-12-20T03:31:33;1.33;;;0.83;;
19812;SDS011;10066;48.108;11.448;2023-12-20T03:34:02;0.83;;;0.60;;
19812;SDS011;10066;48.108;11.448;2023-12-20T03:36:29;1.80;;;0.60;;
19812;SDS011;10066;48.108;11.448;2023-12-20T03:38:57;0.60;;;0.60;;
19812;SDS011;10066;48.108;11.448;2023-12-20T03:41:24;1.73;;;0.70;;
19812;SDS011;10066;48.108;11.448;2023-12-20T03:43:51;2.30;;;0.73;;
19812;SDS011;10066;48.108;11.448;2023-12-20T03:46:18;0.67;;;0.60;;
19812;SDS011;10066;48.108;11.448;2023-12-20T03:48:47;0.87;;;0.53;;
19812;SDS011;10066;48.108;11.448;2023-12-20T03:51:14;0.50;;;0.50;;
19812;SDS011;10066;48.108;11.448;2023-12-20T03:53:41;3.90;;;0.60;;
19812;SDS011;10066;48.108;11.448;2023-12-20T03:56:08;0.70;;;0.70;;
19812;SDS011;10066;48.108;11.448;2023-12-20T03:58:36;1.83;;;0.57;;
19812;SDS011;10066;48.108;11.448;2023-12-20T04:01:03;0.70;;;0.60;;
19812;SDS011;10066;48.108;11.448;2023-12-20T04:03:35;1.20;;;0.60;;
19812;SDS011;10066;48.108;11.448;2023-12-20T04:06:04;2.07;;;0.50;;
19812;SDS011;10066;48.108;11.448;2023-12-20T04:08:31;0.50;;;0.50;;
19812;SDS011;10066;48.108;11.448;2023-12-20T04:10:58;2.53;;;0.80;;
19812;SDS011;10066;48.108;11.448;2023-12-20T04:13:25;0.53;;;0.43;;
19812;SDS011;10066;48.108;11.448;2023-12-20T04:15:52;0.80;;;0.50;;
19812;SDS011;10066;48.108;11.448;2023-12-20T04:18:19;0.53;;;0.50;;
19812;SDS011;10066;48.108;11.448;2023-12-20T04:20:46;0.50;;;0.50;;
19812;SDS011;10066;48.108;11.448;2023-12-20T04:23:15;0.70;;;0.60;;
19812;SDS011;10066;48.108;11.448;2023-12-20T04:25:42;2.97;;;0.80;;
19812;SDS011;10066;48.108;11.448;2023-12-20T04:28:10;1.50;;;0.53;;
19812;SDS011;10066;48.108;11.448;2023-12-20T04:30:37;0.67;;;0.53;;
19812;SDS011;10066;48.108;11.448;2023-12-20T04:33:04;0.60;;;0.60;;
19812;SDS011;10066;48.108;11.448;2023-12-20T04:35:31;0.50;;;0.50;;
19812;SDS011;10066;48.108;11.448;2023-12-20T04:37:58;0.93;;;0.53;;
19812;SDS011;10066;48.108;11.448;2023-12-20T04:40:26;0.90;;;0.77;;
19812;SDS011;10066;48.108;11.448;2023-12-20T04:42:53;0.53;;;0.43;;
19812;SDS011;10066;48.108;11.448;2023-12-20T04:45:20;1.47;;;0.73;;
19812;SDS011;10066;48.108;11.448;2023-12-20T04:47:48;0.70;;;0.60;;
19812;SDS011;10066;48.108;11.448;2023-12-20T04:50:15;1.10;;;0.70;;
19812;SDS011;10066;48.108;11.448;2023-12-20T04:52:42;0.90;;;0.70;;
19812;SDS011;10066;48.108;11.448;2023-12-20T04:55:09;1.03;;;0.70;;
19812;SDS011;10066;48.108;11.448;2023-12-20T04:57:38;0.83;;;0.70;;
19812;SDS011;10066;48.108;11.448;2023-12-20T05:00:06;0.90;;;0.60;;
19812;SDS011;10066;48.108;11.448;2023-12-20T05:02:34;1.20;;;0.87;;
19812;SDS011;10066;48.108;11.448;2023-12-20T05:05:01;1.20;;;0.80;;
19812;SDS011;10066;48.108;11.448;2023-12-20T05:07:28;3.07;;;0.90;;
19812;SDS011;10066;48.108;11.448;2023-12-20T05:09:55;1.10;;;0.80;;
19812;SDS011;10066;48.108;11.448;2023-12-20T05:12:22;1.93;;;1.00;;
19812;SDS011;10066;48.108;11.448;2023-12-20T05:14:51;1.50;;;1.20;;
19812;SDS011;10066;48.108;11.448;2023-12-20T05:17:18;1.30;;;1.10;;
19812;SDS011;10066;48.108;11.448;2023-12-20T05:19:46;1.63;;;0.90;;
19812;SDS011;10066;48.108;11.448;2023-12-20T05:22:13;1.30;;;1.20;;
19812;SDS011;10066;48.108;11.448;2023-12-20T05:24:40;1.20;;;1.00;;
19812;SDS011;10066;48.108;11.448;2023-12-20T05:27:07;1.50;;;1.30;;
19812;SDS011;10066;48.108;11.448;2023-12-20T05:29:34;1.90;;;1.20;;
19812;SDS011;10066;48.108;11.448;2023-12-20T05:32:03;1.87;;;1.10;;
19812;SDS011;10066;48.108;11.448;2023-12-20T05:34:30;1.50;;;1.40;;
19812;SDS011;10066;48.108;11.448;2023-12-20T05:36:57;2.43;;;1.50;;
19812;SDS011;10066;48.108;11.448;2023-12-20T05:39:24;2.40;;;1.40;;
19812;SDS011;10066;48.108;11.448;2023-12-20T05:41:51;1.60;;;1.30;;
19812;SDS011;10066;48.108;11.448;2023-12-20T05:44:18;1.53;;;1.40;;
19812;SDS011;10066;48.108;11.448;2023-12-20T05:46:45;2.57;;;1.40;;
19812;SDS011;10066;48.108;11.448;2023-12-20T05:49:14;2.53;;;1.20;;
19812;SDS011;10066;48.108;11.448;2023-12-20T05:51:41;1.30;;;1.20;;
19812;SDS011;10066;48.108;11.448;2023-12-20T05:54:09;1.67;;;1.20;;
19812;SDS011;10066;48.108;11.448;2023-12-20T05:56:36;2.40;;;1.30;;
19812;SDS011;10066;48.108;11.448;2023-12-20T05:59:03;3.27;;;1.40;;
19812;SDS011;10066;48.108;11.448;2023-12-20T06:01:30;2.20;;;1.53;;
19812;SDS011;10066;48.108;11.448;2023-12-20T06:03:57;1.70;;;1.20;;
19812;SDS011;10066;48.108;11.448;2023-12-20T06:06:26;1.33;;;1.17;;
19812;SDS011;10066;48.108;11.448;2023-12-20T06:08:53;2.37;;;1.40;;
19812;SDS011;10066;48.108;11.448;2023-12-20T06:11:20;1.53;;;1.10;;
19812;SDS011;10066;48.108;11.448;2023-12-20T06:13:47;1.20;;;1.00;;
19812;SDS011;10066;48.108;11.448;2023-12-20T06:16:17;1.50;;;1.40;;
19812;SDS011;10066;48.108;11.448;2023-12-20T06:18:45;2.20;;;1.30;;
19812;SDS011;10066;48.108;11.448;2023-12-20T06:21:12;2.40;;;1.63;;
19812;SDS011;10066;48.108;11.448;2023-12-20T06:23:41;3.00;;;1.20;;
19812;SDS011;10066;48.108;11.448;2023-12-20T06:26:08;6.20;;;1.60;;
19812;SDS011;10066;48.108;11.448;2023-12-20T06:28:35;2.70;;;1.40;;
19812;SDS011;10066;48.108;11.448;2023-12-20T06:31:02;1.50;;;1.20;;
19812;SDS011;10066;48.108;11.448;2023-12-20T06:33:29;3.97;;;1.37;;
19812;SDS011;10066;48.108;11.448;2023-12-20T06:35:57;1.70;;;1.20;;
19812;SDS011;10066;48.108;11.448;2023-12-20T06:38:24;1.77;;;1.30;;
19812;SDS011;10066;48.108;11.448;2023-12-20T06:40:52;2.87;;;1.57;;
19812;SDS011;10066;48.108;11.448;2023-12-20T06:43:20;2.13;;;1.30;;
19812;SDS011;10066;48.108;11.448;2023-12-20T06:45:47;1.40;;;1.30;;
19812;SDS011;10066;48.108;11.448;2023-12-20T06:48:14;3.33;;;1.70;;
19812;SDS011;10066;48.108;11.448;2023-12-20T06:50:41;2.20;;;1.50;;
19812;SDS011;10066;48.108;11.448;2023-12-20T06:53:08;1.60;;;1.13;;
19812;SDS011;10066;48.108;11.448;2023-12-20T06:55:35;1.90;;;1.33;;
19812;SDS011;10066;48.108;11.448;2023-12-20T06:58:04;2.87;;;1.27;;
19812;SDS011;10066;48.108;11.448;2023-12-20T07:00:32;1.20;;;1.10;;
19812;SDS011;10066;48.108;11.448;2023-12-20T07:02:59;1.40;;;1.20;;
19812;SDS011;10066;48.108;11.448;2023-12-20T07:05:26;2.33;;;1.33;;
19812;SDS011;10066;48.108;11.448;2023-12-20T07:07:53;1.97;;;1.13;;
19812;SDS011;10066;48.108;11.448;2023-12-20T07:10:20;1.50;;;1.00;;
19812;SDS011;10066;48.108;11.448;2023-12-20T07:12:48;1.17;;;0.73;;
19812;SDS011;10066;48.108;11.448;2023-12-20T07:15:17;1.13;;;0.83;;
19812;SDS011;10066;48.108;11.448;2023-12-20T07:17:45;1.90;;;0.97;;
19812;SDS011;10066;48.108;11.448;2023-12-20T07:20:12;1.23;;;1.03;;
19812;SDS011;10066;48.108;11.448;2023-12-20T07:22:39;0.90;;;0.70;;
19812;SDS011;10066;48.108;11.448;2023-12-20T07:25:07;2.07;;;1.00;;
19812;SDS011;10066;48.108;11.448;2023-12-20T07:27:34;1.77;;;0.97;;
19812;SDS011;10066;48.108;11.448;2023-12-20T07:30:01;1.70;;;1.40;;
19812;SDS011;10066;48.108;11.448;2023-12-20T07:32:30;1.10;;;0.90;;
19812;SDS011;10066;48.108;11.448;2023-12-20T07:34:57;1.97;;;1.20;;
19812;SDS011;10066;48.108;11.448;2023-12-20T07:37:24;0.73;;;0.60;;
19812;SDS011;10066;48.108;11.448;2023-12-20T07:39:51;1.43;;;0.80;;
19812;SDS011;10066;48.108;11.448;2023-12-20T07:42:18;1.17;;;0.70;;
19812;SDS011;10066;48.108;11.448;2023-12-20T07:44:47;0.77;;;0.67;;
19812;SDS011;10066;48.108;11.448;2023-12-20T07:47:14;1.83;;;0.80;;
19812;SDS011;10066;48.108;11.448;2023-12-20T07:49:48;1.07;;;0.80;;
19812;SDS011;10066;48.108;11.448;2023-12-20T07:52:16;1.83;;;0.80;;
19812;SDS011;10066;48.108;11.448;2023-12-20T07:54:43;2.70;;;0.80;;
19812;SDS011;10066;48.108;11.448;2023-12-20T07:57:11;4.37;;;0.70;;
19812;SDS011;10066;48.108;11.448;2023-12-20T07:59:38;0.80;;;0.80;;
19812;SDS011;10066;48.108;11.448;2023-12-20T08:02:05;0.90;;;0.80;;
19812;SDS011;10066;48.108;11.448;2023-12-20T08:04:32;0.97;;;0.70;;
19812;SDS011;10066;48.108;11.448;2023-12-20T08:07:01;0.90;;;0.80;;
19812;SDS011;10066;48.108;11.448;2023-12-20T08:09:28;1.00;;;0.70;;
19812;SDS011;10066;48.108;11.448;2023-12-20T08:11:57;0.97;;;0.70;;
19812;SDS011;10066;48.108;11.448;2023-12-20T08:14:25;0.90;;;0.77;;
19812;SDS011;10066;48.108;11.448;2023-12-20T08:16:52;0.87;;;0.70;;
19812;SDS011;10066;48.108;11.448;2023-12-20T08:19:19;1.00;;;0.90;;
19812;SDS011;10066;48.108;11.448;2023-12-20T08:21:46;1.83;;;1.00;;
19812;SDS011;10066;48.108;11.448;2023-12-20T08:24:14;0.80;;;0.80;;
19812;SDS011;10066;48.108;11.448;2023-12-20T08:26:41;2.40;;;0.70;;
19812;SDS011;10066;48.108;11.448;2023-12-20T08:29:08;2.70;;;0.80;;
19812;SDS011;10066;48.108;11.448;2023-12-20T08:31:35;1.00;;;0.73;;
19812;SDS011;10066;48.108;11.448;2023-12-20T08:34:02;1.53;;;1.13;;
19812;SDS011;10066;48.108;11.448;2023-12-20T08:36:29;1.67;;;1.20;;
19812;SDS011;10066;48.108;11.448;2023-12-20T08:38:56;1.20;;;0.90;;
19812;SDS011;10066;48.108;11.448;2023-12-20T08:41:27;0.97;;;0.80;;
19812;SDS011;10066;48.108;11.448;2023-12-20T08:43:54;2.10;;;0.80;;
19812;SDS011;10066;48.108;11.448;2023-12-20T08:46:21;1.63;;;0.90;;
19812;SDS011;10066;48.108;11.448;2023-12-20T08:48:48;0.80;;;0.60;;
19812;SDS011;10066;48.108;11.448;2023-12-20T08:51:15;0.80;;;0.70;;
19812;SDS011;10066;48.108;11.448;2023-12-20T08:53:42;0.90;;;0.80;;
19812;SDS011;10066;48.108;11.448;2023-12-20T08:56:10;0.93;;;0.73;;
19812;SDS011;10066;48.108;11.448;2023-12-20T08:58:38;1.00;;;0.73;;
19812;SDS011;10066;48.108;11.448;2023-12-20T09:01:05;1.57;;;0.80;;
19812;SDS011;10066;48.108;11.448;2023-12-20T09:03:33;1.00;;;0.70;;
19812;SDS011;10066;48.108;11.448;2023-12-20T09:06:00;0.80;;;0.60;;
19812;SDS011;10066;48.108;11.448;2023-12-20T09:08:27;0.97;;;0.70;;
19812;SDS011;10066;48.108;11.448;2023-12-20T09:10:54;1.30;;;0.83;;
19812;SDS011;10066;48.108;11.448;2023-12-20T09:13:21;2.00;;;0.90;;
19812;SDS011;10066;48.108;11.448;2023-12-20T09:15:54;1.00;;;0.70;;
19812;SDS011;10066;48.108;11.448;2023-12-20T09:18:21;1.77;;;0.80;;
19812;SDS011;10066;48.108;11.448;2023-12-20T09:20:48;1.97;;;0.60;;
19812;SDS011;10066;48.108;11.448;2023-12-20T09:23:15;0.70;;;0.70;;
19812;SDS011;10066;48.108;11.448;2023-12-20T09:25:43;0.87;;;0.57;;
19812;SDS011;10066;48.108;11.448;2023-12-20T09:28:10;3.70;;;0.70;;
19812;SDS011;10066;48.108;11.448;2023-12-20T09:30:37;0.83;;;0.73;;
19812;SDS011;10066;48.108;11.448;2023-12-20T09:33:06;1.90;;;0.60;;
19812;SDS011;10066;48.108;11.448;2023-12-20T09:35:34;0.80;;;0.70;;
19812;SDS011;10066;48.108;11.448;2023-12-20T09:38:01;2.07;;;0.67;;
19812;SDS011;10066;48.108;11.448;2023-12-20T09:40:28;0.60;;;0.60;;
19812;SDS011;10066;48.108;11.448;2023-12-20T09:42:58;1.47;;;0.70;;
19812;SDS011;10066;48.108;11.448;2023-12-20T09:45:30;1.10;;;0.70;;
19812;SDS011;10066;48.108;11.448;2023-12-20T09:47:57;1.00;;;0.80;;
19812;SDS011;10066;48.108;11.448;2023-12-20T09:50:26;2.30;;;0.70;;
19812;SDS011;10066;48.108;11.448;2023-12-20T09:52:55;1.03;;;0.70;;
19812;SDS011;10066;48.108;11.448;2023-12-20T09:55:25;1.40;;;0.70;;
19812;SDS011;10066;48.108;11.448;2023-12-20T09:57:53;1.40;;;0.90;;
19812;SDS011;10066;48.108;11.448;2023-12-20T10:00:20;0.70;;;0.67;;
19812;SDS011;10066;48.108;11.448;2023-12-20T10:02:50;0.83;;;0.70;;
19812;SDS011;10066;48.108;11.448;2023-12-20T10:05:26;1.00;;;0.90;;
19812;SDS011;10066;48.108;11.448;2023-12-20T10:07:53;3.33;;;0.70;;
19812;SDS011;10066;48.108;11.448;2023-12-20T10:10:20;1.30;;;1.00;;
19812;SDS011;10066;48.108;11.448;2023-12-20T10:13:00;4.00;;;2.87;;
19812;SDS011;10066;48.108;11.448;2023-12-20T10:15:29;1.67;;;1.00;;
19812;SDS011;10066;48.108;11.448;2023-12-20T10:17:56;1.37;;;0.83;;
19812;SDS011;10066;48.108;11.448;2023-12-20T10:20:25;1.40;;;1.00;;
19812;SDS011;10066;48.108;11.448;2023-12-20T10:22:54;1.70;;;1.00;;
19812;SDS011;10066;48.108;11.448;2023-12-20T10:25:21;0.77;;;0.73;;
19812;SDS011;10066;48.108;11.448;2023-12-20T10:27:49;1.17;;;0.70;;
19812;SDS011;10066;48.108;11.448;2023-12-20T10:30:16;2.50;;;0.80;;
19812;SDS011;10066;48.108;11.448;2023-12-20T10:32:43;1.00;;;0.80;;
19812;SDS011;10066;48.108;11.448;2023-12-20T10:35:10;2.60;;;1.20;;
19812;SDS011;10066;48.108;11.448;2023-12-20T10:37:39;2.40;;;0.90;;
19812;SDS011;10066;48.108;11.448;2023-12-20T10:40:06;0.90;;;0.80;;
19812;SDS011;10066;48.108;11.448;2023-12-20T10:42:34;1.37;;;0.73;;
19812;SDS011;10066;48.108;11.448;2023-12-20T10:45:02;1.17;;;1.00;;
19812;SDS011;10066;48.108;11.448;2023-12-20T10:47:30;1.47;;;0.80;;
19812;SDS011;10066;48.108;11.448;2023-12-20T10:49:59;3.33;;;1.03;;
19812;SDS011;10066;48.108;11.448;2023-12-20T10:52:27;0.70;;;0.70;;
19812;SDS011;10066;48.108;11.448;2023-12-20T10:54:57;3.53;;;0.80;;
19812;SDS011;10066;48.108;11.448;2023-12-20T10:57:24;3.63;;;0.90;;
19812;SDS011;10066;48.108;11.448;2023-12-20T10:59:54;2.70;;;0.80;;
19812;SDS011;10066;48.108;11.448;2023-12-20T11:02:24;1.20;;;0.90;;
19812;SDS011;10066;48.108;11.448;2023-12-20T11:04:53;1.10;;;0.90;;
19812;SDS011;10066;48.108;11.448;2023-12-20T11:07:25;0.80;;;0.80;;
19812;SDS011;10066;48.108;11.448;2023-12-20T11:10:03;1.13;;;0.80;;
19812;SDS011;10066;48.108;11.448;2023-12-20T11:12:41;2.83;;;0.70;;
19812;SDS011;10066;48.108;11.448;2023-12-20T11:15:13;0.90;;;0.80;;
19812;SDS011;10066;48.108;11.448;2023-12-20T11:17:44;0.70;;;0.70;;
19812;SDS011;10066;48.108;11.448;2023-12-20T11:20:12;1.57;;;0.80;;
19812;SDS011;10066;48.108;11.448;2023-12-20T11:22:39;0.70;;;0.70;;
19812;SDS011;10066;48.108;11.448;2023-12-20T11:25:21;1.00;;;0.63;;
19812;SDS011;10066;48.108;11.448;2023-12-20T11:30:40;1.10;;;0.80;;
19812;SDS011;10066;48.108;11.448;2023-12-20T11:33:08;0.97;;;0.90;;
19812;SDS011;10066;48.108;11.448;2023-12-20T11:35:35;2.37;;;0.90;;
19812;SDS011;10066;48.108;11.448;2023-12-20T11:38:04;1.97;;;1.20;;
19812;SDS011;10066;48.108;11.448;2023-12-20T11:40:35;1.80;;;1.20;;
19812;SDS011;10066;48.108;11.448;2023-12-20T11:43:02;1.23;;;1.00;;
19812;SDS011;10066;48.108;11.448;2023-12-20T11:45:31;1.93;;;0.97;;
19812;SDS011;10066;48.108;11.448;2023-12-20T11:47:58;1.00;;;0.90;;
19812;SDS011;10066;48.108;11.448;2023-12-20T11:50:25;1.27;;;1.10;;
19812;SDS011;10066;48.108;11.448;2023-12-20T11:52:53;1.50;;;1.20;;
19812;SDS011;10066;48.108;11.448;2023-12-20T11:55:22;1.80;;;1.10;;
19812;SDS011;10066;48.108;11.448;2023-12-20T11:57:51;1.53;;;1.13;;
19812;SDS011;10066;48.108;11.448;2023-12-20T12:00:19;1.73;;;1.37;;
19812;SDS011;10066;48.108;11.448;2023-12-20T12:02:56;1.83;;;1.40;;
19812;SDS011;10066;48.108;11.448;2023-12-20T12:05:24;1.73;;;1.40;;
19812;SDS011;10066;48.108;11.448;2023-12-20T12:07:52;1.77;;;1.10;;
19812;SDS011;10066;48.108;11.448;2023-12-20T12:10:19;1.40;;;1.30;;
19812;SDS011;10066;48.108;11.448;2023-12-20T12:12:48;3.00;;;1.40;;
19812;SDS011;10066;48.108;11.448;2023-12-20T12:15:16;1.60;;;1.40;;
19812;SDS011;10066;48.108;11.448;2023-12-20T12:17:43;1.57;;;1.17;;
19812;SDS011;10066;48.108;11.448;2023-12-20T12:20:19;1.47;;;1.00;;
19812;SDS011;10066;48.108;11.448;2023-12-20T12:22:49;1.17;;;1.03;;
19812;SDS011;10066;48.108;11.448;2023-12-20T12:25:24;1.30;;;1.00;;
19812;SDS011;10066;48.108;11.448;2023-12-20T12:27:51;1.53;;;1.37;;
19812;SDS011;10066;48.108;11.448;2023-12-20T12:30:20;1.00;;;0.90;;
19812;SDS011;10066;48.108;11.448;2023-12-20T12:32:47;1.80;;;1.10;;
19812;SDS011;10066;48.108;11.448;2023-12-20T12:35:14;1.17;;;0.80;;
19812;SDS011;10066;48.108;11.448;2023-12-20T12:37:41;1.43;;;1.00;;
19812;SDS011;10066;48.108;11.448;2023-12-20T12:40:09;1.50;;;1.00;;
19812;SDS011;10066;48.108;11.448;2023-12-20T12:42:38;2.07;;;0.80;;
19812;SDS011;10066;48.108;11.448;2023-12-20T12:45:06;1.20;;;0.90;;
19812;SDS011;10066;48.108;11.448;2023-12-20T12:47:35;2.10;;;1.10;;
19812;SDS011;10066;48.108;11.448;2023-12-20T12:50:03;1.27;;;0.97;;
19812;SDS011;10066;48.108;11.448;2023-12-20T12:52:31;1.30;;;0.90;;
19812;SDS011;10066;48.108;11.448;2023-12-20T12:54:58;1.07;;;0.83;;
19812;SDS011;10066;48.108;11.448;2023-12-20T12:57:25;1.20;;;0.80;;
19812;SDS011;10066;48.108;11.448;2023-12-20T12:59:54;0.80;;;0.80;;
19812;SDS011;10066;48.108;11.448;2023-12-20T13:02:21;1.30;;;1.07;;
19812;SDS011;10066;48.108;11.448;2023-12-20T13:04:49;1.10;;;0.90;;
19812;SDS011;10066;48.108;11.448;2023-12-20T13:07:17;1.17;;;1.00;;
19812;SDS011;10066;48.108;11.448;2023-12-20T13:09:44;1.00;;;0.90;;
19812;SDS011;10066;48.108;11.448;2023-12-20T13:12:11;1.00;;;0.90;;
19812;SDS011;10066;48.108;11.448;2023-12-20T13:14:38;1.30;;;0.83;;
19812;SDS011;10066;48.108;11.448;2023-12-20T13:17:05;1.47;;;1.10;;
19812;SDS011;10066;48.108;11.448;2023-12-20T13:19:32;1.33;;;0.83;;
19812;SDS011;10066;48.108;11.448;2023-12-20T13:22:01;1.73;;;1.00;;
19812;SDS011;10066;48.108;11.448;2023-12-20T13:24:28;0.70;;;0.50;;
19812;SDS011;10066;48.108;11.448;2023-12-20T13:26:57;1.63;;;0.80;;
19812;SDS011;10066;48.108;11.448;2023-12-20T13:29:24;1.43;;;1.27;;
19812;SDS011;10066;48.108;11.448;2023-12-20T13:31:52;1.17;;;0.70;;
19812;SDS011;10066;48.108;11.448;2023-12-20T13:34:20;2.23;;;1.00;;
19812;SDS011;10066;48.108;11.448;2023-12-20T13:36:47;3.67;;;1.23;;
19812;SDS011;10066;48.108;11.448;2023-12-20T13:39:17;1.53;;;1.00;;
19812;SDS011;10066;48.108;11.448;2023-12-20T13:41:44;2.97;;;1.03;;
19812;SDS011;10066;48.108;11.448;2023-12-20T13:44:11;3.73;;;1.00;;
19812;SDS011;10066;48.108;11.448;2023-12-20T13:46:38;2.40;;;1.30;;
19812;SDS011;10066;48.108;11.448;2023-12-20T13:49:06;5.13;;;1.63;;
19812;SDS011;10066;48.108;11.448;2023-12-20T13:51:33;2.37;;;0.93;;
19812;SDS011;10066;48.108;11.448;2023-12-20T13:54:00;1.40;;;1.00;;
19812;SDS011;10066;48.108;11.448;2023-12-20T13:56:29;1.50;;;1.07;;
19812;SDS011;10066;48.108;11.448;2023-12-20T13:58:56;0.83;;;0.63;;
19812;SDS011;10066;48.108;11.448;2023-12-20T14:01:24;3.33;;;1.60;;
19812;SDS011;10066;48.108;11.448;2023-12-20T14:03:52;1.80;;;1.27;;
19812;SDS011;10066;48.108;11.448;2023-12-20T14:06:19;4.73;;;1.60;;
19812;SDS011;10066;48.108;11.448;2023-12-20T14:08:46;2.40;;;1.63;;
19812;SDS011;10066;48.108;11.448;2023-12-20T14:11:13;3.57;;;1.57;;
19812;SDS011;10066;48.108;11.448;2023-12-20T14:13:42;2.90;;;1.20;;
19812;SDS011;10066;48.108;11.448;2023-12-20T14:16:09;2.07;;;1.30;;
19812;SDS011;10066;48.108;11.448;2023-12-20T14:18:37;2.23;;;1.60;;
19812;SDS011;10066;48.108;11.448;2023-12-20T14:21:06;3.03;;;1.77;;
19812;SDS011;10066;48.108;11.448;2023-12-20T14:23:33;3.97;;;1.50;;
19812;SDS011;10066;48.108;11.448;2023-12-20T14:26:00;3.63;;;1.80;;
19812;SDS011;10066;48.108;11.448;2023-12-20T14:28:28;5.20;;;2.00;;
19812;SDS011;10066;48.108;11.448;2023-12-20T14:30:56;4.83;;;1.67;;
19812;SDS011;10066;48.108;11.448;2023-12-20T14:33:23;5.43;;;1.90;;
19812;SDS011;10066;48.108;11.448;2023-12-20T14:35:51;5.70;;;2.00;;
19812;SDS011;10066;48.108;11.448;2023-12-20T14:38:18;2.70;;;1.77;;
19812;SDS011;10066;48.108;11.448;2023-12-20T14:40:45;2.83;;;1.50;;